createdAt,value
2017-01-11T00:00:44.905Z,1010.23
2017-01-11T00:01:44.842Z,1010.21
2017-01-11T00:02:44.781Z,1010.19
2017-01-11T00:03:44.719Z,1010.21
2017-01-11T00:04:44.657Z,1010.19
2017-01-11T00:05:44.595Z,1010.16
2017-01-11T00:06:44.534Z,1010.2
2017-01-11T00:07:44.472Z,1010.15
2017-01-11T00:08:44.409Z,1010.16
2017-01-11T00:09:44.349Z,1010.12
2017-01-11T00:10:44.287Z,1010.08
2017-01-11T00:11:44.224Z,1010.06
2017-01-11T00:12:44.161Z,1010.05
2017-01-11T00:13:44.100Z,1010.05
2017-01-11T00:14:44.037Z,1010.02
2017-01-11T00:15:43.976Z,1010.03
2017-01-11T00:16:43.913Z,1009.97
2017-01-11T00:17:43.861Z,1010.02
2017-01-11T00:18:43.787Z,1010.01
2017-01-11T00:19:43.726Z,1010.01
2017-01-11T00:20:43.666Z,1010.04
2017-01-11T00:21:43.603Z,1009.98
2017-01-11T00:22:43.541Z,1010.01
2017-01-11T00:23:43.479Z,1010.02
2017-01-11T00:24:43.417Z,1010.02
2017-01-11T00:25:43.353Z,1010.02
2017-01-11T00:26:43.292Z,1010
2017-01-11T00:27:43.231Z,1010.05
2017-01-11T00:28:43.169Z,1010.07
2017-01-11T00:29:43.106Z,1010.07
2017-01-11T00:30:43.042Z,1010.1
2017-01-11T00:31:42.981Z,1010.07
2017-01-11T00:32:42.920Z,1010
2017-01-11T00:33:42.857Z,1010.03
2017-01-11T00:34:42.795Z,1009.99
2017-01-11T00:35:42.733Z,1009.97
2017-01-11T00:36:42.670Z,1009.94
2017-01-11T00:37:42.608Z,1009.95
2017-01-11T00:38:42.547Z,1009.96
2017-01-11T00:39:42.485Z,1009.94
2017-01-11T00:40:42.421Z,1009.98
2017-01-11T00:41:42.362Z,1009.97
2017-01-11T00:42:42.298Z,1009.94
2017-01-11T00:43:42.237Z,1009.94
2017-01-11T00:44:42.174Z,1009.91
2017-01-11T00:45:42.112Z,1009.97
2017-01-11T00:46:42.052Z,1009.94
2017-01-11T00:47:41.988Z,1009.97
2017-01-11T00:48:41.926Z,1009.98
2017-01-11T00:49:41.864Z,1009.96
2017-01-11T00:50:41.802Z,1009.97
2017-01-11T00:51:41.739Z,1009.94
2017-01-11T00:52:41.678Z,1009.95
2017-01-11T00:53:41.616Z,1010
2017-01-11T00:54:41.553Z,1009.99
2017-01-11T00:55:41.492Z,1010
2017-01-11T00:56:41.431Z,1009.93
2017-01-11T00:57:41.367Z,1009.92
2017-01-11T00:58:41.305Z,1009.88
2017-01-11T00:59:41.242Z,1009.89
2017-01-11T01:01:10.360Z,1009.87
2017-01-11T01:02:10.286Z,1009.86
2017-01-11T01:03:10.226Z,1009.88
2017-01-11T01:04:10.162Z,1009.86
2017-01-11T01:05:10.100Z,1009.9
2017-01-11T01:06:10.039Z,1009.9
2017-01-11T01:07:09.977Z,1009.92
2017-01-11T01:08:09.914Z,1009.87
2017-01-11T01:09:09.851Z,1009.89
2017-01-11T01:10:09.791Z,1009.85
2017-01-11T01:11:09.728Z,1009.86
2017-01-11T01:12:09.664Z,1009.83
2017-01-11T01:13:09.602Z,1009.85
2017-01-11T01:14:09.544Z,1009.84
2017-01-11T01:15:09.479Z,1009.82
2017-01-11T01:16:09.415Z,1009.83
2017-01-11T01:17:09.355Z,1009.84
2017-01-11T01:18:09.292Z,1009.87
2017-01-11T01:19:09.230Z,1009.83
2017-01-11T01:20:09.168Z,1009.86
2017-01-11T01:21:09.107Z,1009.83
2017-01-11T01:22:09.042Z,1009.84
2017-01-11T01:23:08.981Z,1009.85
2017-01-11T01:24:08.919Z,1009.83
2017-01-11T01:25:08.858Z,1009.78
2017-01-11T01:26:08.794Z,1009.81
2017-01-11T01:27:08.732Z,1009.77
2017-01-11T01:28:08.671Z,1009.77
2017-01-11T01:29:08.608Z,1009.77
2017-01-11T01:30:08.548Z,1009.8
2017-01-11T01:31:08.483Z,1009.83
2017-01-11T01:32:08.421Z,1009.83
2017-01-11T01:33:08.360Z,1009.85
2017-01-11T01:34:08.297Z,1009.87
2017-01-11T01:35:08.235Z,1009.87
2017-01-11T01:36:08.177Z,1009.82
2017-01-11T01:37:08.109Z,1009.86
2017-01-11T01:38:08.047Z,1009.81
2017-01-11T01:39:07.985Z,1009.8
2017-01-11T01:40:07.924Z,1009.82
2017-01-11T01:41:07.861Z,1009.8
2017-01-11T01:42:07.799Z,1009.85
2017-01-11T01:43:07.737Z,1009.84
2017-01-11T01:44:07.674Z,1009.84
2017-01-11T01:45:07.612Z,1009.84
2017-01-11T01:46:07.552Z,1009.85
2017-01-11T01:47:07.488Z,1009.88
2017-01-11T01:48:07.430Z,1009.95
2017-01-11T01:49:07.364Z,1009.97
2017-01-11T01:50:07.301Z,1009.95
2017-01-11T01:51:07.240Z,1009.98
2017-01-11T01:52:07.176Z,1010.02
2017-01-11T01:53:07.116Z,1010.02
2017-01-11T01:54:07.053Z,1009.98
2017-01-11T01:55:06.991Z,1009.94
2017-01-11T01:56:06.930Z,1009.95
2017-01-11T01:57:06.866Z,1009.94
2017-01-11T01:58:06.804Z,1009.88
2017-01-11T01:59:06.741Z,1009.87
2017-01-11T02:00:06.679Z,1009.83
2017-01-11T02:01:06.617Z,1009.82
2017-01-11T02:02:06.555Z,1009.76
2017-01-11T02:03:06.491Z,1009.77
2017-01-11T02:04:06.430Z,1009.85
2017-01-11T02:05:06.367Z,1009.88
2017-01-11T02:06:06.304Z,1009.92
2017-01-11T02:07:06.243Z,1009.95
2017-01-11T02:08:06.181Z,1009.95
2017-01-11T02:09:06.117Z,1009.96
2017-01-11T02:10:06.055Z,1009.95
2017-01-11T02:11:05.992Z,1009.93
2017-01-11T02:12:05.932Z,1009.94
2017-01-11T02:13:05.869Z,1009.95
2017-01-11T02:14:05.805Z,1009.96
2017-01-11T02:15:05.744Z,1009.9
2017-01-11T02:16:05.684Z,1009.88
2017-01-11T02:17:05.618Z,1009.83
2017-01-11T02:18:05.556Z,1009.78
2017-01-11T02:19:05.496Z,1009.77
2017-01-11T02:20:05.432Z,1009.78
2017-01-11T02:21:05.370Z,1009.71
2017-01-11T02:22:05.307Z,1009.69
2017-01-11T02:23:05.246Z,1009.7
2017-01-11T02:24:05.185Z,1009.66
2017-01-11T02:25:05.120Z,1009.62
2017-01-11T02:26:05.059Z,1009.61
2017-01-11T02:27:04.997Z,1009.56
2017-01-11T02:28:04.934Z,1009.61
2017-01-11T02:29:04.872Z,1009.61
2017-01-11T02:30:04.810Z,1009.55
2017-01-11T02:31:04.747Z,1009.54
2017-01-11T02:32:04.684Z,1009.57
2017-01-11T02:33:04.622Z,1009.5
2017-01-11T02:34:04.560Z,1009.46
2017-01-11T02:35:04.497Z,1009.47
2017-01-11T02:36:04.436Z,1009.5
2017-01-11T02:37:04.377Z,1009.49
2017-01-11T02:38:04.312Z,1009.56
2017-01-11T02:39:04.248Z,1009.54
2017-01-11T02:40:04.187Z,1009.65
2017-01-11T02:41:04.126Z,1009.68
2017-01-11T02:42:04.063Z,1009.68
2017-01-11T02:43:04.000Z,1009.69
2017-01-11T02:44:03.939Z,1009.68
2017-01-11T02:45:03.876Z,1009.65
2017-01-11T02:46:03.813Z,1009.69
2017-01-11T02:47:03.752Z,1009.62
2017-01-11T02:48:03.690Z,1009.65
2017-01-11T02:49:03.628Z,1009.66
2017-01-11T02:50:03.564Z,1009.64
2017-01-11T02:51:03.505Z,1009.75
2017-01-11T02:52:03.441Z,1009.73
2017-01-11T02:53:03.380Z,1009.67
2017-01-11T02:54:03.317Z,1009.71
2017-01-11T02:55:03.258Z,1009.69
2017-01-11T02:56:03.195Z,1009.69
2017-01-11T02:57:03.131Z,1009.7
2017-01-11T02:58:03.070Z,1009.63
2017-01-11T02:59:03.008Z,1009.59
2017-01-11T03:00:02.946Z,1009.58
2017-01-11T03:01:02.884Z,1009.56
2017-01-11T03:02:02.823Z,1009.47
2017-01-11T03:03:02.761Z,1009.5
2017-01-11T03:04:02.700Z,1009.55
2017-01-11T03:05:02.638Z,1009.5
2017-01-11T03:06:02.575Z,1009.52
2017-01-11T03:07:02.516Z,1009.44
2017-01-11T03:08:02.451Z,1009.44
2017-01-11T03:09:02.390Z,1009.43
2017-01-11T03:10:02.330Z,1009.43
2017-01-11T03:11:02.267Z,1009.43
2017-01-11T03:12:02.207Z,1009.42
2017-01-11T03:13:02.142Z,1009.43
2017-01-11T03:14:02.082Z,1009.43
2017-01-11T03:15:02.020Z,1009.38
2017-01-11T03:16:01.959Z,1009.31
2017-01-11T03:17:01.897Z,1009.22
2017-01-11T03:18:01.836Z,1009.15
2017-01-11T03:19:01.773Z,1009.09
2017-01-11T03:20:01.710Z,1009.03
2017-01-11T03:21:01.649Z,1009
2017-01-11T03:22:01.587Z,1009.03
2017-01-11T03:23:01.532Z,1009.01
2017-01-11T03:24:01.464Z,1009.02
2017-01-11T03:25:01.403Z,1009.04
2017-01-11T03:26:01.342Z,1009.09
2017-01-11T03:27:01.279Z,1009.04
2017-01-11T03:28:01.216Z,1009.08
2017-01-11T03:29:01.155Z,1009.05
2017-01-11T03:30:01.093Z,1008.99
2017-01-11T03:31:01.032Z,1008.92
2017-01-11T03:32:00.970Z,1008.92
2017-01-11T03:33:00.908Z,1008.81
2017-01-11T03:34:00.847Z,1008.76
2017-01-11T03:35:00.787Z,1008.75
2017-01-11T03:36:00.723Z,1008.77
2017-01-11T03:37:00.661Z,1008.81
2017-01-11T03:38:00.599Z,1008.82
2017-01-11T03:39:00.537Z,1008.84
2017-01-11T03:40:00.476Z,1008.83
2017-01-11T03:41:00.414Z,1008.81
2017-01-11T03:42:00.352Z,1008.76
2017-01-11T03:43:00.290Z,1008.75
2017-01-11T03:44:00.229Z,1008.69
2017-01-11T03:45:00.166Z,1008.69
2017-01-11T03:46:00.105Z,1008.67
2017-01-11T03:47:00.044Z,1008.72
2017-01-11T03:47:59.983Z,1008.66
2017-01-11T03:48:59.920Z,1008.72
2017-01-11T03:49:59.861Z,1008.69
2017-01-11T03:50:59.796Z,1008.69
2017-01-11T03:51:59.733Z,1008.66
2017-01-11T03:52:59.672Z,1008.63
2017-01-11T03:53:59.611Z,1008.61
2017-01-11T03:54:59.549Z,1008.59
2017-01-11T03:55:59.488Z,1008.58
2017-01-11T03:56:59.425Z,1008.59
2017-01-11T03:57:59.365Z,1008.68
2017-01-11T03:58:59.302Z,1008.69
2017-01-11T03:59:59.240Z,1008.7
2017-01-11T04:00:59.179Z,1008.68
2017-01-11T04:01:59.117Z,1008.67
2017-01-11T04:02:59.054Z,1008.62
2017-01-11T04:03:58.994Z,1008.59
2017-01-11T04:04:58.931Z,1008.64
2017-01-11T04:05:58.871Z,1008.67
2017-01-11T04:06:58.809Z,1008.7
2017-01-11T04:07:58.948Z,1008.72
2017-01-11T04:08:58.685Z,1008.78
2017-01-11T04:09:58.623Z,1008.71
2017-01-11T04:10:58.561Z,1008.66
2017-01-11T04:11:58.500Z,1008.6
2017-01-11T04:12:58.439Z,1008.56
2017-01-11T04:13:58.375Z,1008.53
2017-01-11T04:14:58.313Z,1008.53
2017-01-11T04:15:58.252Z,1008.51
2017-01-11T04:16:58.192Z,1008.52
2017-01-11T04:17:58.128Z,1008.52
2017-01-11T04:18:58.066Z,1008.5
2017-01-11T04:19:58.005Z,1008.5
2017-01-11T04:20:57.943Z,1008.46
2017-01-11T04:21:57.882Z,1008.41
2017-01-11T04:22:57.820Z,1008.35
2017-01-11T04:23:57.759Z,1008.3
2017-01-11T04:24:57.695Z,1008.28
2017-01-11T04:25:57.633Z,1008.23
2017-01-11T04:26:57.573Z,1008.2
2017-01-11T04:27:57.511Z,1008.17
2017-01-11T04:28:57.448Z,1008.2
2017-01-11T04:29:57.386Z,1008.15
2017-01-11T04:30:57.324Z,1008.14
2017-01-11T04:31:57.262Z,1008.09
2017-01-11T04:32:57.200Z,1008.06
2017-01-11T04:33:57.138Z,1007.98
2017-01-11T04:34:57.077Z,1007.9
2017-01-11T04:35:57.015Z,1007.9
2017-01-11T04:36:56.952Z,1007.84
2017-01-11T04:37:56.892Z,1007.87
2017-01-11T04:38:56.828Z,1007.83
2017-01-11T04:39:56.766Z,1007.86
2017-01-11T04:40:56.706Z,1007.83
2017-01-11T04:41:56.644Z,1007.81
2017-01-11T04:42:56.580Z,1007.77
2017-01-11T04:43:56.518Z,1007.77
2017-01-11T04:44:56.457Z,1007.82
2017-01-11T04:45:56.394Z,1007.76
2017-01-11T04:46:56.331Z,1007.84
2017-01-11T04:47:56.269Z,1007.76
2017-01-11T04:48:56.209Z,1007.73
2017-01-11T04:49:56.146Z,1007.7
2017-01-11T04:50:56.083Z,1007.66
2017-01-11T04:51:56.022Z,1007.66
2017-01-11T04:52:55.961Z,1007.67
2017-01-11T04:53:55.898Z,1007.65
2017-01-11T04:54:55.835Z,1007.63
2017-01-11T04:55:55.773Z,1007.64
2017-01-11T04:56:55.712Z,1007.6
2017-01-11T04:57:55.650Z,1007.58
2017-01-11T04:58:55.588Z,1007.57
2017-01-11T04:59:55.525Z,1007.55
2017-01-11T05:00:55.464Z,1007.54
2017-01-11T05:01:55.402Z,1007.56
2017-01-11T05:02:55.340Z,1007.56
2017-01-11T05:03:55.278Z,1007.43
2017-01-11T05:04:55.215Z,1007.48
2017-01-11T05:05:55.153Z,1007.47
2017-01-11T05:06:55.092Z,1007.44
2017-01-11T05:07:55.030Z,1007.45
2017-01-11T05:08:54.974Z,1007.46
2017-01-11T05:09:54.914Z,1007.42
2017-01-11T05:10:54.843Z,1007.33
2017-01-11T05:11:54.782Z,1007.33
2017-01-11T05:12:54.719Z,1007.33
2017-01-11T05:13:54.657Z,1007.3
2017-01-11T05:14:54.594Z,1007.27
2017-01-11T05:15:54.530Z,1007.25
2017-01-11T05:16:54.469Z,1007.29
2017-01-11T05:17:54.407Z,1007.27
2017-01-11T05:18:54.345Z,1007.65
2017-01-11T05:19:54.283Z,1007.53
2017-01-11T05:20:54.222Z,1007.26
2017-01-11T05:21:54.158Z,1007.22
2017-01-11T05:22:54.299Z,1007.23
2017-01-11T05:23:54.034Z,1007.19
2017-01-11T05:24:53.973Z,1007.23
2017-01-11T05:25:53.911Z,1007.22
2017-01-11T05:26:53.848Z,1007.22
2017-01-11T05:27:53.785Z,1007.22
2017-01-11T05:28:53.724Z,1007.23
2017-01-11T05:29:53.663Z,1007.23
2017-01-11T05:30:53.598Z,1007.24
2017-01-11T05:31:53.537Z,1007.22
2017-01-11T05:32:53.476Z,1007.26
2017-01-11T05:33:53.414Z,1007.24
2017-01-11T05:34:53.350Z,1007.22
2017-01-11T05:35:53.288Z,1007.27
2017-01-11T05:36:53.226Z,1007.27
2017-01-11T05:37:53.165Z,1007.25
2017-01-11T05:38:53.100Z,1007.32
2017-01-11T05:39:53.040Z,1007.34
2017-01-11T05:40:52.978Z,1007.4
2017-01-11T05:41:52.915Z,1007.37
2017-01-11T05:42:52.853Z,1007.36
2017-01-11T05:43:52.791Z,1007.37
2017-01-11T05:44:52.728Z,1007.38
2017-01-11T05:45:52.668Z,1007.37
2017-01-11T05:46:52.605Z,1007.35
2017-01-11T05:47:52.545Z,1007.34
2017-01-11T05:48:52.491Z,1007.31
2017-01-11T05:49:52.419Z,1007.29
2017-01-11T05:50:52.356Z,1007.21
2017-01-11T05:51:52.294Z,1007.25
2017-01-11T05:52:52.231Z,1007.2
2017-01-11T05:53:52.170Z,1007.22
2017-01-11T05:54:52.107Z,1007.22
2017-01-11T05:55:52.044Z,1007.14
2017-01-11T05:56:51.984Z,1007.13
2017-01-11T05:57:51.920Z,1007.05
2017-01-11T05:58:51.860Z,1007.05
2017-01-11T05:59:51.798Z,1006.97
2017-01-11T06:00:51.736Z,1006.97
2017-01-11T06:01:51.674Z,1006.89
2017-01-11T06:02:51.613Z,1006.88
2017-01-11T06:03:51.548Z,1006.89
2017-01-11T06:04:51.490Z,1006.86
2017-01-11T06:05:51.425Z,1006.82
2017-01-11T06:06:51.362Z,1006.81
2017-01-11T06:07:51.301Z,1006.81
2017-01-11T06:08:51.240Z,1006.77
2017-01-11T06:09:51.177Z,1006.79
2017-01-11T06:10:51.115Z,1006.79
2017-01-11T06:11:51.054Z,1006.72
2017-01-11T06:12:50.991Z,1006.68
2017-01-11T06:13:50.931Z,1006.65
2017-01-11T06:14:50.867Z,1006.6
2017-01-11T06:15:50.808Z,1006.65
2017-01-11T06:16:50.745Z,1006.69
2017-01-11T06:17:50.683Z,1006.74
2017-01-11T06:18:50.621Z,1006.73
2017-01-11T06:19:50.560Z,1006.75
2017-01-11T06:20:50.497Z,1006.75
2017-01-11T06:21:50.438Z,1006.72
2017-01-11T06:22:50.372Z,1006.7
2017-01-11T06:23:50.311Z,1006.72
2017-01-11T06:24:50.250Z,1006.67
2017-01-11T06:25:50.187Z,1006.68
2017-01-11T06:26:50.126Z,1006.59
2017-01-11T06:27:50.063Z,1006.64
2017-01-11T06:28:50.002Z,1006.57
2017-01-11T06:29:49.939Z,1006.58
2017-01-11T06:30:49.879Z,1006.53
2017-01-11T06:31:49.817Z,1006.53
2017-01-11T06:32:49.753Z,1006.43
2017-01-11T06:33:49.692Z,1006.43
2017-01-11T06:34:49.630Z,1006.4
2017-01-11T06:35:49.569Z,1006.32
2017-01-11T06:36:49.507Z,1006.25
2017-01-11T06:37:49.444Z,1006.25
2017-01-11T06:38:49.383Z,1006.2
2017-01-11T06:39:49.320Z,1006.19
2017-01-11T06:40:49.261Z,1006.14
2017-01-11T06:41:49.200Z,1006.15
2017-01-11T06:42:49.138Z,1006.15
2017-01-11T06:43:49.073Z,1006.11
2017-01-11T06:44:49.012Z,1006.08
2017-01-11T06:45:48.949Z,1006.08
2017-01-11T06:46:48.889Z,1006.04
2017-01-11T06:47:48.826Z,1005.98
2017-01-11T06:48:48.764Z,1005.94
2017-01-11T06:49:48.703Z,1005.94
2017-01-11T06:50:48.641Z,1005.89
2017-01-11T06:51:48.579Z,1005.93
2017-01-11T06:52:48.516Z,1005.92
2017-01-11T06:53:48.455Z,1006.01
2017-01-11T06:54:48.393Z,1006.08
2017-01-11T06:55:48.330Z,1006.22
2017-01-11T06:56:48.269Z,1006.32
2017-01-11T06:57:48.207Z,1006.35
2017-01-11T06:58:48.144Z,1006.37
2017-01-11T06:59:48.091Z,1006.38
2017-01-11T07:00:48.022Z,1006.4
2017-01-11T07:01:47.958Z,1006.39
2017-01-11T07:02:47.897Z,1006.34
2017-01-11T07:03:47.835Z,1006.37
2017-01-11T07:04:47.774Z,1006.32
2017-01-11T07:05:47.711Z,1006.31
2017-01-11T07:06:47.650Z,1006.27
2017-01-11T07:07:47.587Z,1006.26
2017-01-11T07:08:47.527Z,1006.25
2017-01-11T07:09:47.463Z,1006.21
2017-01-11T07:10:47.402Z,1006.24
2017-01-11T07:11:47.341Z,1006.27
2017-01-11T07:12:47.278Z,1006.27
2017-01-11T07:13:47.215Z,1006.28
2017-01-11T07:14:47.153Z,1006.24
2017-01-11T07:15:47.092Z,1006.16
2017-01-11T07:16:47.030Z,1006.13
2017-01-11T07:17:46.967Z,1006.1
2017-01-11T07:18:46.905Z,1006.09
2017-01-11T07:19:46.844Z,1006.14
2017-01-11T07:20:46.782Z,1006.17
2017-01-11T07:21:46.722Z,1006.12
2017-01-11T07:22:46.660Z,1006.15
2017-01-11T07:23:46.596Z,1006.15
2017-01-11T07:24:46.535Z,1006.06
2017-01-11T07:25:46.474Z,1006.09
2017-01-11T07:26:46.412Z,1006.1
2017-01-11T07:27:46.349Z,1006.09
2017-01-11T07:28:46.286Z,1006.02
2017-01-11T07:29:46.225Z,1006.05
2017-01-11T07:30:46.163Z,1005.96
2017-01-11T07:31:46.101Z,1006.04
2017-01-11T07:32:46.038Z,1006.05
2017-01-11T07:33:45.977Z,1006.02
2017-01-11T07:34:45.914Z,1006.01
2017-01-11T07:35:45.852Z,1006.04
2017-01-11T07:36:45.792Z,1006.01
2017-01-11T07:37:45.728Z,1006.03
2017-01-11T07:38:45.666Z,1006.02
2017-01-11T07:39:45.603Z,1006
2017-01-11T07:40:45.542Z,1006.01
2017-01-11T07:41:45.481Z,1005.99
2017-01-11T07:42:45.418Z,1005.95
2017-01-11T07:43:45.355Z,1005.99
2017-01-11T07:44:45.295Z,1006.05
2017-01-11T07:45:45.231Z,1006.12
2017-01-11T07:46:45.169Z,1006.15
2017-01-11T07:47:45.108Z,1006.18
2017-01-11T07:48:45.046Z,1006.18
2017-01-11T07:49:44.984Z,1006.1
2017-01-11T07:50:44.922Z,1006.08
2017-01-11T07:51:44.862Z,1006.08
2017-01-11T07:52:44.798Z,1006.1
2017-01-11T07:53:44.735Z,1006.04
2017-01-11T07:54:44.673Z,1006.12
2017-01-11T07:55:44.612Z,1006.12
2017-01-11T07:56:44.548Z,1006.06
2017-01-11T07:57:44.487Z,1006.1
2017-01-11T07:58:44.425Z,1006
2017-01-11T07:59:44.364Z,1005.98
2017-01-11T08:00:44.300Z,1005.91
2017-01-11T08:01:44.240Z,1005.92
2017-01-11T08:02:44.178Z,1005.99
2017-01-11T08:03:44.115Z,1005.96
2017-01-11T08:04:44.053Z,1005.96
2017-01-11T08:05:43.990Z,1005.91
2017-01-11T08:06:43.930Z,1005.97
2017-01-11T08:07:43.868Z,1005.93
2017-01-11T08:08:43.805Z,1005.94
2017-01-11T08:09:43.742Z,1005.91
2017-01-11T08:10:43.682Z,1005.88
2017-01-11T08:11:43.620Z,1005.77
2017-01-11T08:12:43.557Z,1005.78
2017-01-11T08:13:43.495Z,1005.83
2017-01-11T08:14:43.431Z,1005.8
2017-01-11T08:15:43.370Z,1005.79
2017-01-11T08:16:43.310Z,1005.81
2017-01-11T08:17:43.247Z,1005.78
2017-01-11T08:18:43.183Z,1005.74
2017-01-11T08:19:43.121Z,1005.77
2017-01-11T08:20:43.060Z,1005.82
2017-01-11T08:21:42.998Z,1005.76
2017-01-11T08:22:42.935Z,1005.69
2017-01-11T08:23:42.874Z,1005.62
2017-01-11T08:24:42.812Z,1005.59
2017-01-11T08:25:42.751Z,1005.55
2017-01-11T08:26:42.688Z,1005.58
2017-01-11T08:27:42.634Z,1005.53
2017-01-11T08:28:42.563Z,1005.53
2017-01-11T08:29:42.500Z,1005.45
2017-01-11T08:31:42.378Z,1005.39
2017-01-11T08:32:42.325Z,1005.3
2017-01-11T08:33:42.253Z,1005.26
2017-01-11T08:34:42.192Z,1005.22
2017-01-11T08:35:42.128Z,1005.14
2017-01-11T08:36:42.066Z,1005.18
2017-01-11T08:37:42.015Z,1005.13
2017-01-11T08:38:41.953Z,1005.12
2017-01-11T08:39:41.880Z,1005.13
2017-01-11T08:40:41.818Z,1005.19
2017-01-11T08:41:41.756Z,1005.18
2017-01-11T08:42:41.694Z,1005.15
2017-01-11T08:43:41.632Z,1005.05
2017-01-11T08:44:41.571Z,1005.03
2017-01-11T08:45:41.508Z,1005.02
2017-01-11T08:46:41.446Z,1004.96
2017-01-11T08:47:41.384Z,1004.91
2017-01-11T08:48:41.322Z,1004.89
2017-01-11T08:49:41.261Z,1004.85
2017-01-11T08:50:41.198Z,1004.81
2017-01-11T08:51:41.136Z,1004.72
2017-01-11T08:52:41.074Z,1004.73
2017-01-11T08:53:41.012Z,1004.65
2017-01-11T08:54:40.953Z,1004.59
2017-01-11T08:55:40.889Z,1004.47
2017-01-11T08:56:40.826Z,1004.48
2017-01-11T08:57:40.768Z,1004.44
2017-01-11T08:58:40.702Z,1004.48
2017-01-11T08:59:40.641Z,1004.52
2017-01-11T09:00:40.578Z,1004.55
2017-01-11T09:01:40.517Z,1004.54
2017-01-11T09:02:40.454Z,1004.54
2017-01-11T09:03:40.391Z,1004.54
2017-01-11T09:04:40.331Z,1004.48
2017-01-11T09:05:40.817Z,1004.42
2017-01-11T09:06:40.205Z,1004.36
2017-01-11T09:07:40.146Z,1004.33
2017-01-11T09:08:40.084Z,1004.22
2017-01-11T09:09:40.022Z,1004.2
2017-01-11T09:10:39.958Z,1004.25
2017-01-11T09:11:39.896Z,1004.18
2017-01-11T09:12:39.837Z,1004.18
2017-01-11T09:13:39.772Z,1004.07
2017-01-11T09:14:39.710Z,1004.07
2017-01-11T09:15:39.700Z,1004.07
2017-01-11T09:16:39.586Z,1004.03
2017-01-11T09:17:39.524Z,1004.08
2017-01-11T09:18:39.464Z,1004.01
2017-01-11T09:19:39.401Z,1004.04
2017-01-11T09:20:39.339Z,1003.99
2017-01-11T09:21:39.276Z,1003.97
2017-01-11T09:22:39.215Z,1003.81
2017-01-11T09:23:39.168Z,1003.78
2017-01-11T09:24:39.092Z,1003.71
2017-01-11T09:25:39.030Z,1003.57
2017-01-11T09:26:38.969Z,1003.37
2017-01-11T09:27:38.906Z,1003.42
2017-01-11T09:28:38.843Z,1003.36
2017-01-11T09:29:38.783Z,1003.42
2017-01-11T09:30:38.721Z,1003.53
2017-01-11T09:31:38.659Z,1003.5
2017-01-11T09:32:38.596Z,1003.6
2017-01-11T09:33:38.535Z,1003.51
2017-01-11T09:34:38.474Z,1003.54
2017-01-11T09:35:38.410Z,1003.52
2017-01-11T09:36:38.353Z,1003.58
2017-01-11T09:37:38.294Z,1003.62
2017-01-11T09:38:38.225Z,1003.71
2017-01-11T09:39:38.163Z,1003.74
2017-01-11T09:40:38.105Z,1003.75
2017-01-11T09:41:38.039Z,1003.77
2017-01-11T09:42:37.976Z,1003.66
2017-01-11T09:43:37.913Z,1003.67
2017-01-11T09:44:37.852Z,1003.63
2017-01-11T09:45:37.791Z,1003.51
2017-01-11T09:46:37.727Z,1003.48
2017-01-11T09:47:37.665Z,1003.37
2017-01-11T09:48:37.603Z,1003.32
2017-01-11T09:49:37.541Z,1003.25
2017-01-11T09:50:37.479Z,1003.24
2017-01-11T09:51:37.416Z,1003.19
2017-01-11T09:52:37.354Z,1003.22
2017-01-11T09:53:37.292Z,1003.07
2017-01-11T09:54:37.230Z,1003.05
2017-01-11T09:55:37.168Z,1003.02
2017-01-11T09:56:37.106Z,1002.9
2017-01-11T09:57:37.042Z,1002.82
2017-01-11T09:58:36.981Z,1002.77
2017-01-11T09:59:36.920Z,1002.7
2017-01-11T10:00:36.855Z,1002.65
2017-01-11T10:01:36.793Z,1002.59
2017-01-11T10:02:36.731Z,1002.54
2017-01-11T10:03:36.671Z,1002.53
2017-01-11T10:04:36.609Z,1002.53
2017-01-11T10:05:36.544Z,1002.46
2017-01-11T10:06:36.483Z,1002.36
2017-01-11T10:07:36.421Z,1002.35
2017-01-11T10:08:36.357Z,1002.29
2017-01-11T10:09:36.296Z,1002.22
2017-01-11T10:10:36.234Z,1002.29
2017-01-11T10:11:36.172Z,1002.28
2017-01-11T10:12:36.109Z,1002.2
2017-01-11T10:13:36.047Z,1002.27
2017-01-11T10:14:35.986Z,1002.25
2017-01-11T10:15:35.929Z,1002.18
2017-01-11T10:16:35.861Z,1002.19
2017-01-11T10:17:35.797Z,1002.17
2017-01-11T10:18:35.735Z,1002.13
2017-01-11T10:19:35.674Z,1002.08
2017-01-11T10:20:35.962Z,1002.03
2017-01-11T10:21:35.550Z,1002.03
2017-01-11T10:22:35.486Z,1002.01
2017-01-11T10:23:35.423Z,1002.05
2017-01-11T10:24:35.363Z,1002.08
2017-01-11T10:25:35.302Z,1002.02
2017-01-11T10:26:35.236Z,1001.86
2017-01-11T10:27:35.175Z,1001.87
2017-01-11T10:28:35.114Z,1001.73
2017-01-11T10:29:35.051Z,1001.73
2017-01-11T10:30:34.989Z,1001.68
2017-01-11T10:31:34.928Z,1001.69
2017-01-11T10:32:34.867Z,1001.63
2017-01-11T10:33:34.803Z,1001.54
2017-01-11T10:34:34.741Z,1001.44
2017-01-11T10:35:34.687Z,1001.43
2017-01-11T10:36:34.627Z,1001.4
2017-01-11T10:37:34.554Z,1001.37
2017-01-11T10:38:34.492Z,1001.19
2017-01-11T10:39:34.430Z,1001.18
2017-01-11T10:40:34.376Z,1001.11
2017-01-11T10:41:34.308Z,1001.13
2017-01-11T10:42:34.242Z,1001.09
2017-01-11T10:43:34.180Z,1001.02
2017-01-11T10:44:34.118Z,1001.05
2017-01-11T10:45:34.056Z,1001.08
2017-01-11T10:46:33.994Z,1001.12
2017-01-11T10:47:33.932Z,1001.29
2017-01-11T10:48:33.871Z,1001.2
2017-01-11T10:49:33.807Z,1001.14
2017-01-11T10:50:33.747Z,1001.08
2017-01-11T10:51:33.683Z,1001.02
2017-01-11T10:52:33.668Z,1000.96
2017-01-11T10:53:33.560Z,1000.9
2017-01-11T10:54:33.507Z,1000.75
2017-01-11T10:55:33.435Z,1000.59
2017-01-11T10:56:33.374Z,1000.61
2017-01-11T10:57:33.310Z,1000.48
2017-01-11T10:58:33.322Z,1000.43
2017-01-11T10:59:33.185Z,1000.43
2017-01-11T11:00:33.123Z,1000.38
2017-01-11T11:01:33.062Z,1000.27
2017-01-11T11:02:32.998Z,1000.25
2017-01-11T11:03:32.937Z,1000.13
2017-01-11T11:04:32.874Z,1000.26
2017-01-11T11:05:32.813Z,1000.24
2017-01-11T11:06:32.748Z,1000.22
2017-01-11T11:07:32.687Z,1000.16
2017-01-11T11:08:32.626Z,1000.04
2017-01-11T11:09:32.562Z,1000.06
2017-01-11T11:10:32.500Z,1000.02
2017-01-11T11:11:32.438Z,1000.05
2017-01-11T11:12:32.375Z,1000.04
2017-01-11T11:13:32.312Z,999.94
2017-01-11T11:14:32.249Z,999.98
2017-01-11T11:15:32.186Z,999.76
2017-01-11T11:16:32.127Z,999.75
2017-01-11T11:17:32.062Z,999.66
2017-01-11T11:18:31.999Z,999.69
2017-01-11T11:19:31.939Z,999.73
2017-01-11T11:20:31.875Z,999.88
2017-01-11T11:21:31.812Z,999.78
2017-01-11T11:22:31.750Z,999.81
2017-01-11T11:23:31.685Z,999.57
2017-01-11T11:24:31.623Z,999.67
2017-01-11T11:25:31.569Z,999.79
2017-01-11T11:26:31.498Z,999.76
2017-01-11T11:27:31.436Z,999.69
2017-01-11T11:28:31.372Z,999.69
2017-01-11T11:29:31.354Z,999.6
2017-01-11T11:30:31.305Z,999.56
2017-01-11T11:31:31.213Z,999.38
2017-01-11T11:32:31.121Z,999.45
2017-01-11T11:33:31.103Z,999.3
2017-01-11T11:34:31.055Z,999.2
2017-01-11T11:35:31.004Z,999.16
2017-01-11T11:36:30.905Z,999.18
2017-01-11T11:37:30.864Z,999.19
2017-01-11T11:38:30.768Z,999.09
2017-01-11T11:39:30.755Z,999.09
2017-01-11T11:40:30.695Z,999.1
2017-01-11T11:41:30.559Z,999.06
2017-01-11T11:42:30.494Z,998.98
2017-01-11T11:43:30.432Z,998.98
2017-01-11T11:44:30.370Z,999.01
2017-01-11T11:45:30.305Z,998.89
2017-01-11T11:46:30.243Z,998.89
2017-01-11T11:47:30.180Z,998.77
2017-01-11T11:48:30.121Z,998.77
2017-01-11T11:49:30.056Z,998.75
2017-01-11T11:50:30.044Z,998.84
2017-01-11T11:51:29.975Z,998.74
2017-01-11T11:52:29.867Z,998.67
2017-01-11T11:53:29.846Z,998.61
2017-01-11T11:54:29.781Z,998.6
2017-01-11T11:55:29.719Z,998.55
2017-01-11T11:56:29.668Z,998.5
2017-01-11T11:57:29.592Z,998.45
2017-01-11T11:58:29.510Z,998.51
2017-01-11T11:59:29.468Z,998.44
2017-01-11T12:00:29.365Z,998.33
2017-01-11T12:01:29.302Z,998.16
2017-01-11T12:02:29.239Z,998.17
2017-01-11T12:03:29.178Z,998.22
2017-01-11T12:04:29.114Z,998.14
2017-01-11T12:05:29.052Z,998.17
2017-01-11T12:06:28.990Z,998
2017-01-11T12:07:28.927Z,998
2017-01-11T12:08:28.864Z,998.05
2017-01-11T12:09:28.801Z,998.18
2017-01-11T12:10:28.740Z,998.12
2017-01-11T12:11:28.677Z,998.06